sensor_id;sensor_type;location;lat;lon;timestamp;P1;durP1;ratioP1;P2;durP2;ratioP2
75044;SDS011;63614;56.026;35.960;2022-10-23T00:00:39;12.02;;;7.13;;
75044;SDS011;63614;56.026;35.960;2022-10-23T00:03:05;12.50;;;6.85;;
75044;SDS011;63614;56.026;35.960;2022-10-23T00:05:31;12.23;;;7.30;;
75044;SDS011;63614;56.026;35.960;2022-10-23T00:07:57;17.88;;;7.25;;
75044;SDS011;63614;56.026;35.960;2022-10-23T00:10:25;12.23;;;7.22;;
75044;SDS011;63614;56.026;35.960;2022-10-23T00:12:52;16.30;;;7.10;;
75044;SDS011;63614;56.026;35.960;2022-10-23T00:15:19;13.23;;;6.70;;
75044;SDS011;63614;56.026;35.960;2022-10-23T00:17:46;11.93;;;6.95;;
75044;SDS011;63614;56.026;35.960;2022-10-23T00:20:13;10.85;;;7.20;;
75044;SDS011;63614;56.026;35.960;2022-10-23T00:22:40;11.30;;;7.35;;
75044;SDS011;63614;56.026;35.960;2022-10-23T00:25:06;15.27;;;7.40;;
75044;SDS011;63614;56.026;35.960;2022-10-23T00:27:33;12.23;;;7.30;;
75044;SDS011;63614;56.026;35.960;2022-10-23T00:30:00;19.38;;;7.50;;
75044;SDS011;63614;56.026;35.960;2022-10-23T00:32:26;17.13;;;7.47;;
75044;SDS011;63614;56.026;35.960;2022-10-23T00:34:52;11.63;;;7.47;;
75044;SDS011;63614;56.026;35.960;2022-10-23T00:37:18;18.95;;;7.82;;
75044;SDS011;63614;56.026;35.960;2022-10-23T00:39:44;12.57;;;7.78;;
75044;SDS011;63614;56.026;35.960;2022-10-23T00:42:17;14.98;;;8.18;;
75044;SDS011;63614;56.026;35.960;2022-10-23T00:47:11;19.35;;;8.15;;
75044;SDS011;63614;56.026;35.960;2022-10-23T00:49:38;13.55;;;8.30;;
75044;SDS011;63614;56.026;35.960;2022-10-23T00:52:05;17.15;;;9.10;;
75044;SDS011;63614;56.026;35.960;2022-10-23T00:54:35;16.27;;;8.27;;
75044;SDS011;63614;56.026;35.960;2022-10-23T00:57:03;11.82;;;8.20;;
75044;SDS011;63614;56.026;35.960;2022-10-23T00:59:30;19.33;;;8.98;;
75044;SDS011;63614;56.026;35.960;2022-10-23T01:01:57;16.80;;;9.00;;
75044;SDS011;63614;56.026;35.960;2022-10-23T01:12:24;15.32;;;9.63;;
75044;SDS011;63614;56.026;35.960;2022-10-23T01:15:05;17.48;;;9.07;;
75044;SDS011;63614;56.026;35.960;2022-10-23T01:17:55;14.27;;;9.18;;
75044;SDS011;63614;56.026;35.960;2022-10-23T01:20:44;15.15;;;9.05;;
75044;SDS011;63614;56.026;35.960;2022-10-23T01:28:29;20.90;;;9.63;;
75044;SDS011;63614;56.026;35.960;2022-10-23T01:31:01;14.40;;;9.25;;
75044;SDS011;63614;56.026;35.960;2022-10-23T01:33:36;20.58;;;9.25;;
75044;SDS011;63614;56.026;35.960;2022-10-23T01:36:09;19.10;;;9.57;;
75044;SDS011;63614;56.026;35.960;2022-10-23T01:41:23;20.95;;;9.70;;
75044;SDS011;63614;56.026;35.960;2022-10-23T01:46:35;20.30;;;9.85;;
75044;SDS011;63614;56.026;35.960;2022-10-23T01:49:05;15.38;;;9.45;;
75044;SDS011;63614;56.026;35.960;2022-10-23T01:51:35;21.70;;;9.77;;
75044;SDS011;63614;56.026;35.960;2022-10-23T01:54:06;22.15;;;10.05;;
75044;SDS011;63614;56.026;35.960;2022-10-23T01:56:36;15.85;;;9.07;;
75044;SDS011;63614;56.026;35.960;2022-10-23T01:59:07;15.65;;;9.68;;
75044;SDS011;63614;56.026;35.960;2022-10-23T02:01:38;19.08;;;10.07;;
75044;SDS011;63614;56.026;35.960;2022-10-23T02:04:09;15.40;;;9.68;;
75044;SDS011;63614;56.026;35.960;2022-10-23T02:06:38;23.98;;;9.93;;
75044;SDS011;63614;56.026;35.960;2022-10-23T02:09:04;17.95;;;10.13;;
75044;SDS011;63614;56.026;35.960;2022-10-23T02:11:32;16.50;;;9.63;;
75044;SDS011;63614;56.026;35.960;2022-10-23T02:14:10;18.15;;;9.55;;
75044;SDS011;63614;56.026;35.960;2022-10-23T02:16:46;18.67;;;9.70;;
75044;SDS011;63614;56.026;35.960;2022-10-23T02:21:52;19.25;;;10.35;;
75044;SDS011;63614;56.026;35.960;2022-10-23T02:24:42;16.95;;;9.40;;
75044;SDS011;63614;56.026;35.960;2022-10-23T02:27:15;20.40;;;9.95;;
75044;SDS011;63614;56.026;35.960;2022-10-23T02:30:01;18.08;;;10.05;;
75044;SDS011;63614;56.026;35.960;2022-10-23T02:32:30;16.40;;;9.10;;
75044;SDS011;63614;56.026;35.960;2022-10-23T02:34:57;19.52;;;10.23;;
75044;SDS011;63614;56.026;35.960;2022-10-23T02:37:23;18.27;;;10.07;;
75044;SDS011;63614;56.026;35.960;2022-10-23T02:39:50;19.60;;;10.00;;
75044;SDS011;63614;56.026;35.960;2022-10-23T02:42:37;24.30;;;10.45;;
75044;SDS011;63614;56.026;35.960;2022-10-23T02:48:08;17.98;;;9.70;;
75044;SDS011;63614;56.026;35.960;2022-10-23T02:55:59;19.77;;;10.18;;
75044;SDS011;63614;56.026;35.960;2022-10-23T03:01:22;18.58;;;10.65;;
75044;SDS011;63614;56.026;35.960;2022-10-23T03:03:57;20.13;;;9.73;;
75044;SDS011;63614;56.026;35.960;2022-10-23T03:06:25;18.77;;;9.95;;
75044;SDS011;63614;56.026;35.960;2022-10-23T03:08:52;17.95;;;10.50;;
75044;SDS011;63614;56.026;35.960;2022-10-23T03:11:26;20.17;;;10.43;;
75044;SDS011;63614;56.026;35.960;2022-10-23T03:13:53;17.30;;;10.43;;
75044;SDS011;63614;56.026;35.960;2022-10-23T03:16:20;20.33;;;10.77;;
75044;SDS011;63614;56.026;35.960;2022-10-23T03:18:51;26.27;;;10.95;;
75044;SDS011;63614;56.026;35.960;2022-10-23T03:21:17;21.38;;;11.07;;
75044;SDS011;63614;56.026;35.960;2022-10-23T03:23:43;19.90;;;11.27;;
75044;SDS011;63614;56.026;35.960;2022-10-23T03:26:12;25.50;;;11.60;;
75044;SDS011;63614;56.026;35.960;2022-10-23T03:28:41;18.17;;;10.05;;
75044;SDS011;63614;56.026;35.960;2022-10-23T03:31:07;21.08;;;11.27;;
75044;SDS011;63614;56.026;35.960;2022-10-23T03:33:33;27.33;;;11.50;;
75044;SDS011;63614;56.026;35.960;2022-10-23T03:36:06;26.08;;;10.63;;
75044;SDS011;63614;56.026;35.960;2022-10-23T03:38:33;20.73;;;10.82;;
75044;SDS011;63614;56.026;35.960;2022-10-23T03:41:01;22.98;;;11.05;;
75044;SDS011;63614;56.026;35.960;2022-10-23T03:43:27;28.30;;;11.40;;
75044;SDS011;63614;56.026;35.960;2022-10-23T03:45:54;22.38;;;12.70;;
75044;SDS011;63614;56.026;35.960;2022-10-23T03:48:23;21.85;;;10.48;;
75044;SDS011;63614;56.026;35.960;2022-10-23T03:50:50;20.90;;;12.00;;
75044;SDS011;63614;56.026;35.960;2022-10-23T03:53:15;17.58;;;10.75;;
75044;SDS011;63614;56.026;35.960;2022-10-23T03:55:42;20.27;;;10.32;;
75044;SDS011;63614;56.026;35.960;2022-10-23T03:58:08;18.17;;;11.70;;
75044;SDS011;63614;56.026;35.960;2022-10-23T04:00:35;22.73;;;11.55;;
75044;SDS011;63614;56.026;35.960;2022-10-23T04:03:01;24.67;;;11.65;;
75044;SDS011;63614;56.026;35.960;2022-10-23T04:05:29;29.45;;;11.77;;
75044;SDS011;63614;56.026;35.960;2022-10-23T04:07:57;19.30;;;10.73;;
75044;SDS011;63614;56.026;35.960;2022-10-23T04:10:23;16.75;;;10.27;;
75044;SDS011;63614;56.026;35.960;2022-10-23T04:12:49;24.70;;;11.52;;
75044;SDS011;63614;56.026;35.960;2022-10-23T04:15:15;23.08;;;11.30;;
75044;SDS011;63614;56.026;35.960;2022-10-23T04:17:44;23.05;;;12.05;;
75044;SDS011;63614;56.026;35.960;2022-10-23T04:20:10;23.58;;;12.77;;
75044;SDS011;63614;56.026;35.960;2022-10-23T04:22:36;23.98;;;12.38;;
75044;SDS011;63614;56.026;35.960;2022-10-23T04:25:02;26.67;;;12.57;;
75044;SDS011;63614;56.026;35.960;2022-10-23T04:29:56;19.83;;;11.48;;
75044;SDS011;63614;56.026;35.960;2022-10-23T04:32:21;24.92;;;12.07;;
75044;SDS011;63614;56.026;35.960;2022-10-23T04:34:47;22.45;;;11.88;;
75044;SDS011;63614;56.026;35.960;2022-10-23T04:37:13;23.38;;;12.75;;
75044;SDS011;63614;56.026;35.960;2022-10-23T04:39:39;23.13;;;12.60;;
75044;SDS011;63614;56.026;35.960;2022-10-23T04:42:05;22.00;;;12.27;;
75044;SDS011;63614;56.026;35.960;2022-10-23T04:44:30;19.75;;;12.07;;
75044;SDS011;63614;56.026;35.960;2022-10-23T04:46:56;22.08;;;12.32;;
75044;SDS011;63614;56.026;35.960;2022-10-23T04:49:23;23.45;;;11.57;;
75044;SDS011;63614;56.026;35.960;2022-10-23T04:52:09;22.08;;;12.55;;
75044;SDS011;63614;56.026;35.960;2022-10-23T04:54:58;24.13;;;12.35;;
75044;SDS011;63614;56.026;35.960;2022-10-23T04:57:40;25.60;;;12.90;;
75044;SDS011;63614;56.026;35.960;2022-10-23T05:00:08;24.42;;;13.18;;
75044;SDS011;63614;56.026;35.960;2022-10-23T05:02:44;22.42;;;12.55;;
75044;SDS011;63614;56.026;35.960;2022-10-23T05:05:12;23.38;;;12.50;;
75044;SDS011;63614;56.026;35.960;2022-10-23T05:07:56;28.27;;;13.25;;
75044;SDS011;63614;56.026;35.960;2022-10-23T05:10:38;24.42;;;12.48;;
75044;SDS011;63614;56.026;35.960;2022-10-23T05:13:08;19.67;;;12.63;;
75044;SDS011;63614;56.026;35.960;2022-10-23T05:15:34;25.27;;;12.13;;
75044;SDS011;63614;56.026;35.960;2022-10-23T05:18:06;23.27;;;12.55;;
75044;SDS011;63614;56.026;35.960;2022-10-23T05:20:40;21.80;;;12.50;;
75044;SDS011;63614;56.026;35.960;2022-10-23T05:23:09;21.27;;;11.90;;
75044;SDS011;63614;56.026;35.960;2022-10-23T05:25:46;24.50;;;12.68;;
75044;SDS011;63614;56.026;35.960;2022-10-23T05:28:16;23.95;;;12.50;;
75044;SDS011;63614;56.026;35.960;2022-10-23T05:30:41;21.63;;;12.27;;
75044;SDS011;63614;56.026;35.960;2022-10-23T05:33:08;24.88;;;13.00;;
75044;SDS011;63614;56.026;35.960;2022-10-23T05:35:39;25.10;;;12.10;;
75044;SDS011;63614;56.026;35.960;2022-10-23T05:38:07;27.10;;;12.90;;
75044;SDS011;63614;56.026;35.960;2022-10-23T05:40:35;21.23;;;12.05;;
75044;SDS011;63614;56.026;35.960;2022-10-23T05:43:05;24.50;;;12.80;;
75044;SDS011;63614;56.026;35.960;2022-10-23T05:45:47;22.27;;;12.23;;
75044;SDS011;63614;56.026;35.960;2022-10-23T05:48:34;22.05;;;11.63;;
75044;SDS011;63614;56.026;35.960;2022-10-23T05:51:21;20.33;;;12.82;;
75044;SDS011;63614;56.026;35.960;2022-10-23T05:53:53;20.80;;;12.60;;
75044;SDS011;63614;56.026;35.960;2022-10-23T05:56:38;22.52;;;12.02;;
75044;SDS011;63614;56.026;35.960;2022-10-23T05:59:17;22.92;;;11.80;;
75044;SDS011;63614;56.026;35.960;2022-10-23T06:02:12;25.42;;;11.73;;
75044;SDS011;63614;56.026;35.960;2022-10-23T06:05:04;23.52;;;12.15;;
75044;SDS011;63614;56.026;35.960;2022-10-23T06:07:50;21.73;;;11.45;;
75044;SDS011;63614;56.026;35.960;2022-10-23T06:10:17;30.75;;;11.80;;
75044;SDS011;63614;56.026;35.960;2022-10-23T06:12:46;20.42;;;11.55;;
75044;SDS011;63614;56.026;35.960;2022-10-23T06:15:15;20.45;;;11.77;;
75044;SDS011;63614;56.026;35.960;2022-10-23T06:18:04;22.27;;;11.32;;
75044;SDS011;63614;56.026;35.960;2022-10-23T06:20:37;18.85;;;11.88;;
75044;SDS011;63614;56.026;35.960;2022-10-23T06:23:20;20.55;;;11.10;;
75044;SDS011;63614;56.026;35.960;2022-10-23T06:26:13;25.73;;;12.73;;
75044;SDS011;63614;56.026;35.960;2022-10-23T06:29:00;20.93;;;11.50;;
75044;SDS011;63614;56.026;35.960;2022-10-23T06:31:26;16.08;;;11.38;;
75044;SDS011;63614;56.026;35.960;2022-10-23T06:33:55;22.33;;;11.25;;
75044;SDS011;63614;56.026;35.960;2022-10-23T06:36:22;22.58;;;11.55;;
75044;SDS011;63614;56.026;35.960;2022-10-23T06:38:51;21.40;;;11.82;;
75044;SDS011;63614;56.026;35.960;2022-10-23T06:43:51;23.15;;;11.60;;
75044;SDS011;63614;56.026;35.960;2022-10-23T06:46:26;15.98;;;10.55;;
75044;SDS011;63614;56.026;35.960;2022-10-23T06:49:15;21.13;;;11.85;;
75044;SDS011;63614;56.026;35.960;2022-10-23T06:51:47;21.50;;;11.43;;
75044;SDS011;63614;56.026;35.960;2022-10-23T06:54:13;19.90;;;10.60;;
75044;SDS011;63614;56.026;35.960;2022-10-23T06:57:05;20.63;;;11.70;;
75044;SDS011;63614;56.026;35.960;2022-10-23T06:59:40;20.48;;;10.32;;
75044;SDS011;63614;56.026;35.960;2022-10-23T07:02:07;25.13;;;11.68;;
75044;SDS011;63614;56.026;35.960;2022-10-23T07:04:36;20.10;;;11.10;;
75044;SDS011;63614;56.026;35.960;2022-10-23T07:07:09;22.42;;;11.57;;
75044;SDS011;63614;56.026;35.960;2022-10-23T07:09:43;18.35;;;11.23;;
75044;SDS011;63614;56.026;35.960;2022-10-23T07:12:24;20.23;;;11.00;;
75044;SDS011;63614;56.026;35.960;2022-10-23T07:15:04;27.15;;;10.73;;
75044;SDS011;63614;56.026;35.960;2022-10-23T07:17:30;19.25;;;11.48;;
75044;SDS011;63614;56.026;35.960;2022-10-23T07:19:57;18.13;;;11.18;;
75044;SDS011;63614;56.026;35.960;2022-10-23T07:22:23;29.05;;;11.13;;
75044;SDS011;63614;56.026;35.960;2022-10-23T07:25:00;20.73;;;11.20;;
75044;SDS011;63614;56.026;35.960;2022-10-23T07:27:34;23.33;;;11.38;;
75044;SDS011;63614;56.026;35.960;2022-10-23T07:30:05;23.10;;;12.13;;
75044;SDS011;63614;56.026;35.960;2022-10-23T07:32:39;22.48;;;11.40;;
75044;SDS011;63614;56.026;35.960;2022-10-23T07:35:23;23.58;;;11.70;;
75044;SDS011;63614;56.026;35.960;2022-10-23T07:37:54;25.88;;;12.98;;
75044;SDS011;63614;56.026;35.960;2022-10-23T07:40:21;22.00;;;12.45;;
75044;SDS011;63614;56.026;35.960;2022-10-23T07:42:49;21.73;;;11.30;;
75044;SDS011;63614;56.026;35.960;2022-10-23T07:47:48;25.80;;;11.85;;
75044;SDS011;63614;56.026;35.960;2022-10-23T07:50:16;30.20;;;12.00;;
75044;SDS011;63614;56.026;35.960;2022-10-23T07:52:42;20.80;;;11.45;;
75044;SDS011;63614;56.026;35.960;2022-10-23T07:55:10;20.15;;;10.77;;
75044;SDS011;63614;56.026;35.960;2022-10-23T07:57:42;20.50;;;10.95;;
75044;SDS011;63614;56.026;35.960;2022-10-23T08:00:24;21.13;;;10.43;;
75044;SDS011;63614;56.026;35.960;2022-10-23T08:02:57;25.85;;;11.30;;
75044;SDS011;63614;56.026;35.960;2022-10-23T08:05:24;28.33;;;11.45;;
75044;SDS011;63614;56.026;35.960;2022-10-23T08:07:56;22.52;;;11.75;;
75044;SDS011;63614;56.026;35.960;2022-10-23T08:10:21;21.30;;;11.27;;
75044;SDS011;63614;56.026;35.960;2022-10-23T08:12:47;19.23;;;11.98;;
75044;SDS011;63614;56.026;35.960;2022-10-23T08:15:14;27.58;;;12.20;;
75044;SDS011;63614;56.026;35.960;2022-10-23T08:17:50;30.95;;;11.95;;
75044;SDS011;63614;56.026;35.960;2022-10-23T08:20:21;20.85;;;11.80;;
75044;SDS011;63614;56.026;35.960;2022-10-23T08:22:47;25.83;;;11.85;;
75044;SDS011;63614;56.026;35.960;2022-10-23T08:25:20;23.70;;;11.80;;
75044;SDS011;63614;56.026;35.960;2022-10-23T08:27:46;27.02;;;11.80;;
75044;SDS011;63614;56.026;35.960;2022-10-23T08:30:15;23.73;;;11.73;;
75044;SDS011;63614;56.026;35.960;2022-10-23T08:32:42;19.60;;;11.90;;
75044;SDS011;63614;56.026;35.960;2022-10-23T08:35:11;20.73;;;12.15;;
75044;SDS011;63614;56.026;35.960;2022-10-23T08:37:37;23.58;;;11.40;;
75044;SDS011;63614;56.026;35.960;2022-10-23T08:40:03;39.03;;;11.75;;
75044;SDS011;63614;56.026;35.960;2022-10-23T08:45:53;23.33;;;11.25;;
75044;SDS011;63614;56.026;35.960;2022-10-23T08:48:49;26.92;;;12.57;;
75044;SDS011;63614;56.026;35.960;2022-10-23T08:51:41;26.48;;;11.50;;
75044;SDS011;63614;56.026;35.960;2022-10-23T08:54:14;27.23;;;11.60;;
75044;SDS011;63614;56.026;35.960;2022-10-23T08:56:48;24.15;;;12.27;;
75044;SDS011;63614;56.026;35.960;2022-10-23T09:02:03;28.63;;;13.13;;
75044;SDS011;63614;56.026;35.960;2022-10-23T09:04:41;26.80;;;13.18;;
75044;SDS011;63614;56.026;35.960;2022-10-23T09:12:28;32.03;;;13.35;;
75044;SDS011;63614;56.026;35.960;2022-10-23T09:17:41;31.27;;;13.88;;
75044;SDS011;63614;56.026;35.960;2022-10-23T09:20:18;38.35;;;14.65;;
75044;SDS011;63614;56.026;35.960;2022-10-23T09:22:48;40.17;;;15.02;;
75044;SDS011;63614;56.026;35.960;2022-10-23T09:25:22;39.63;;;14.32;;
75044;SDS011;63614;56.026;35.960;2022-10-23T09:27:54;42.75;;;15.27;;
75044;SDS011;63614;56.026;35.960;2022-10-23T09:30:29;36.70;;;15.43;;
75044;SDS011;63614;56.026;35.960;2022-10-23T09:32:58;35.58;;;14.20;;
75044;SDS011;63614;56.026;35.960;2022-10-23T09:35:38;38.72;;;14.45;;
75044;SDS011;63614;56.026;35.960;2022-10-23T09:41:36;37.17;;;16.10;;
75044;SDS011;63614;56.026;35.960;2022-10-23T09:46:39;45.00;;;15.27;;
75044;SDS011;63614;56.026;35.960;2022-10-23T09:49:20;46.92;;;16.60;;
75044;SDS011;63614;56.026;35.960;2022-10-23T09:52:18;37.00;;;14.75;;
75044;SDS011;63614;56.026;35.960;2022-10-23T09:54:58;40.10;;;15.95;;
75044;SDS011;63614;56.026;35.960;2022-10-23T10:02:39;42.03;;;17.17;;
75044;SDS011;63614;56.026;35.960;2022-10-23T10:05:31;43.72;;;16.50;;
75044;SDS011;63614;56.026;35.960;2022-10-23T10:10:52;41.60;;;16.63;;
75044;SDS011;63614;56.026;35.960;2022-10-23T10:16:31;40.10;;;16.48;;
75044;SDS011;63614;56.026;35.960;2022-10-23T10:22:00;50.03;;;16.73;;
75044;SDS011;63614;56.026;35.960;2022-10-23T10:24:39;35.88;;;15.65;;
75044;SDS011;63614;56.026;35.960;2022-10-23T10:27:51;43.28;;;16.33;;
75044;SDS011;63614;56.026;35.960;2022-10-23T10:30:09;42.40;;;16.63;;
75044;SDS011;63614;56.026;35.960;2022-10-23T10:35:25;40.83;;;16.80;;
75044;SDS011;63614;56.026;35.960;2022-10-23T10:38:11;49.45;;;17.70;;
75044;SDS011;63614;56.026;35.960;2022-10-23T10:40:45;41.40;;;16.65;;
75044;SDS011;63614;56.026;35.960;2022-10-23T10:46:08;40.33;;;17.40;;
75044;SDS011;63614;56.026;35.960;2022-10-23T10:54:42;42.20;;;16.02;;
75044;SDS011;63614;56.026;35.960;2022-10-23T10:59:49;47.13;;;17.93;;
75044;SDS011;63614;56.026;35.960;2022-10-23T11:07:42;40.78;;;17.52;;
75044;SDS011;63614;56.026;35.960;2022-10-23T11:10:32;41.17;;;17.60;;
75044;SDS011;63614;56.026;35.960;2022-10-23T11:13:00;41.00;;;15.77;;
75044;SDS011;63614;56.026;35.960;2022-10-23T11:15:27;42.35;;;16.77;;
75044;SDS011;63614;56.026;35.960;2022-10-23T11:18:03;45.75;;;15.82;;
75044;SDS011;63614;56.026;35.960;2022-10-23T11:20:42;33.15;;;15.27;;
75044;SDS011;63614;56.026;35.960;2022-10-23T11:26:42;40.33;;;16.00;;
75044;SDS011;63614;56.026;35.960;2022-10-23T11:29:53;41.20;;;15.05;;
75044;SDS011;63614;56.026;35.960;2022-10-23T11:41:23;34.20;;;14.82;;
75044;SDS011;63614;56.026;35.960;2022-10-23T11:43:57;42.13;;;15.55;;
75044;SDS011;63614;56.026;35.960;2022-10-23T11:46:33;37.65;;;15.30;;
75044;SDS011;63614;56.026;35.960;2022-10-23T11:49:01;45.20;;;16.02;;
75044;SDS011;63614;56.026;35.960;2022-10-23T12:02:24;38.50;;;16.45;;
75044;SDS011;63614;56.026;35.960;2022-10-23T12:05:03;41.25;;;16.25;;
75044;SDS011;63614;56.026;35.960;2022-10-23T12:07:38;52.63;;;17.98;;
75044;SDS011;63614;56.026;35.960;2022-10-23T12:10:06;43.67;;;16.15;;
75044;SDS011;63614;56.026;35.960;2022-10-23T12:12:52;45.20;;;17.17;;
75044;SDS011;63614;56.026;35.960;2022-10-23T12:15:23;46.50;;;16.88;;
75044;SDS011;63614;56.026;35.960;2022-10-23T12:17:51;48.72;;;17.77;;
75044;SDS011;63614;56.026;35.960;2022-10-23T12:31:42;42.38;;;16.05;;
75044;SDS011;63614;56.026;35.960;2022-10-23T12:41:52;39.10;;;14.77;;
75044;SDS011;63614;56.026;35.960;2022-10-23T12:44:18;36.05;;;14.60;;
75044;SDS011;63614;56.026;35.960;2022-10-23T12:46:48;34.15;;;14.50;;
75044;SDS011;63614;56.026;35.960;2022-10-23T12:49:19;34.92;;;13.50;;
75044;SDS011;63614;56.026;35.960;2022-10-23T12:51:53;32.20;;;13.85;;
75044;SDS011;63614;56.026;35.960;2022-10-23T12:54:21;33.58;;;13.90;;
75044;SDS011;63614;56.026;35.960;2022-10-23T12:56:47;37.17;;;14.18;;
75044;SDS011;63614;56.026;35.960;2022-10-23T12:59:15;37.08;;;13.30;;
75044;SDS011;63614;56.026;35.960;2022-10-23T13:01:43;36.40;;;13.63;;
75044;SDS011;63614;56.026;35.960;2022-10-23T13:06:57;28.80;;;12.73;;
75044;SDS011;63614;56.026;35.960;2022-10-23T13:09:40;32.03;;;13.63;;
75044;SDS011;63614;56.026;35.960;2022-10-23T13:12:34;30.35;;;12.32;;
75044;SDS011;63614;56.026;35.960;2022-10-23T13:17:36;35.15;;;12.05;;
75044;SDS011;63614;56.026;35.960;2022-10-23T13:25:22;27.88;;;12.00;;
75044;SDS011;63614;56.026;35.960;2022-10-23T13:28:00;21.95;;;11.10;;
75044;SDS011;63614;56.026;35.960;2022-10-23T13:30:36;40.78;;;12.25;;
75044;SDS011;63614;56.026;35.960;2022-10-23T13:33:14;34.88;;;13.27;;
75044;SDS011;63614;56.026;35.960;2022-10-23T13:35:53;33.95;;;13.07;;
75044;SDS011;63614;56.026;35.960;2022-10-23T13:38:40;24.63;;;11.10;;
75044;SDS011;63614;56.026;35.960;2022-10-23T13:41:16;27.67;;;11.15;;
75044;SDS011;63614;56.026;35.960;2022-10-23T13:43:44;33.10;;;11.45;;
75044;SDS011;63614;56.026;35.960;2022-10-23T13:46:15;26.77;;;10.90;;
75044;SDS011;63614;56.026;35.960;2022-10-23T13:48:43;25.67;;;11.65;;
75044;SDS011;63614;56.026;35.960;2022-10-23T13:51:20;26.70;;;11.05;;
75044;SDS011;63614;56.026;35.960;2022-10-23T13:56:15;28.98;;;10.82;;
75044;SDS011;63614;56.026;35.960;2022-10-23T13:58:41;26.52;;;11.15;;
75044;SDS011;63614;56.026;35.960;2022-10-23T14:01:27;21.83;;;10.18;;
75044;SDS011;63614;56.026;35.960;2022-10-23T14:03:55;28.90;;;10.63;;
75044;SDS011;63614;56.026;35.960;2022-10-23T14:06:22;37.28;;;12.30;;
75044;SDS011;63614;56.026;35.960;2022-10-23T14:08:47;34.08;;;12.75;;
75044;SDS011;63614;56.026;35.960;2022-10-23T14:11:15;28.90;;;12.60;;
75044;SDS011;63614;56.026;35.960;2022-10-23T14:13:41;25.42;;;12.30;;
75044;SDS011;63614;56.026;35.960;2022-10-23T14:16:08;33.90;;;13.40;;
75044;SDS011;63614;56.026;35.960;2022-10-23T14:18:36;32.30;;;14.25;;
75044;SDS011;63614;56.026;35.960;2022-10-23T14:21:02;32.72;;;13.40;;
75044;SDS011;63614;56.026;35.960;2022-10-23T14:23:29;29.55;;;12.45;;
75044;SDS011;63614;56.026;35.960;2022-10-23T14:26:06;29.25;;;12.55;;
75044;SDS011;63614;56.026;35.960;2022-10-23T14:28:34;30.48;;;12.30;;
75044;SDS011;63614;56.026;35.960;2022-10-23T14:31:06;30.30;;;12.95;;
75044;SDS011;63614;56.026;35.960;2022-10-23T14:33:34;33.20;;;13.00;;
75044;SDS011;63614;56.026;35.960;2022-10-23T14:36:00;35.75;;;13.25;;
75044;SDS011;63614;56.026;35.960;2022-10-23T14:38:26;37.30;;;13.80;;
75044;SDS011;63614;56.026;35.960;2022-10-23T14:40:52;40.10;;;14.55;;
75044;SDS011;63614;56.026;35.960;2022-10-23T14:43:18;40.40;;;14.52;;
75044;SDS011;63614;56.026;35.960;2022-10-23T14:45:43;38.45;;;14.32;;
75044;SDS011;63614;56.026;35.960;2022-10-23T14:48:10;36.35;;;15.00;;
75044;SDS011;63614;56.026;35.960;2022-10-23T14:50:40;42.83;;;15.77;;
75044;SDS011;63614;56.026;35.960;2022-10-23T14:53:08;38.63;;;15.95;;
75044;SDS011;63614;56.026;35.960;2022-10-23T14:55:34;45.67;;;16.35;;
75044;SDS011;63614;56.026;35.960;2022-10-23T14:58:00;39.08;;;15.55;;
75044;SDS011;63614;56.026;35.960;2022-10-23T15:00:26;36.53;;;15.77;;
75044;SDS011;63614;56.026;35.960;2022-10-23T15:02:55;38.15;;;16.05;;
75044;SDS011;63614;56.026;35.960;2022-10-23T15:05:21;44.90;;;17.45;;
75044;SDS011;63614;56.026;35.960;2022-10-23T15:07:46;45.67;;;17.27;;
75044;SDS011;63614;56.026;35.960;2022-10-23T15:10:13;39.63;;;16.08;;
75044;SDS011;63614;56.026;35.960;2022-10-23T15:12:39;39.45;;;15.05;;
75044;SDS011;63614;56.026;35.960;2022-10-23T15:15:05;42.22;;;16.40;;
75044;SDS011;63614;56.026;35.960;2022-10-23T15:17:32;54.17;;;17.88;;
75044;SDS011;63614;56.026;35.960;2022-10-23T15:20:01;49.42;;;16.38;;
75044;SDS011;63614;56.026;35.960;2022-10-23T15:22:28;60.80;;;19.13;;
75044;SDS011;63614;56.026;35.960;2022-10-23T15:24:54;59.65;;;18.35;;
75044;SDS011;63614;56.026;35.960;2022-10-23T15:27:21;43.17;;;17.83;;
75044;SDS011;63614;56.026;35.960;2022-10-23T15:29:47;58.40;;;18.60;;
75044;SDS011;63614;56.026;35.960;2022-10-23T15:32:13;73.72;;;20.70;;
75044;SDS011;63614;56.026;35.960;2022-10-23T15:34:40;56.72;;;19.23;;
75044;SDS011;63614;56.026;35.960;2022-10-23T15:37:08;60.85;;;21.73;;
75044;SDS011;63614;56.026;35.960;2022-10-23T15:39:35;54.53;;;18.42;;
75044;SDS011;63614;56.026;35.960;2022-10-23T15:42:04;46.95;;;18.17;;
75044;SDS011;63614;56.026;35.960;2022-10-23T15:44:32;60.97;;;20.17;;
75044;SDS011;63614;56.026;35.960;2022-10-23T15:46:58;60.17;;;19.23;;
75044;SDS011;63614;56.026;35.960;2022-10-23T15:49:25;59.08;;;18.40;;
75044;SDS011;63614;56.026;35.960;2022-10-23T15:51:53;53.15;;;17.63;;
75044;SDS011;63614;56.026;35.960;2022-10-23T15:54:19;63.55;;;18.40;;
75044;SDS011;63614;56.026;35.960;2022-10-23T15:56:46;67.57;;;18.73;;
75044;SDS011;63614;56.026;35.960;2022-10-23T15:59:17;66.85;;;19.10;;
75044;SDS011;63614;56.026;35.960;2022-10-23T16:01:45;78.78;;;22.35;;
75044;SDS011;63614;56.026;35.960;2022-10-23T16:04:11;63.70;;;18.98;;
75044;SDS011;63614;56.026;35.960;2022-10-23T16:06:37;62.40;;;20.67;;
75044;SDS011;63614;56.026;35.960;2022-10-23T16:09:03;61.85;;;19.23;;
75044;SDS011;63614;56.026;35.960;2022-10-23T16:11:30;71.40;;;19.85;;
75044;SDS011;63614;56.026;35.960;2022-10-23T16:13:59;57.92;;;18.25;;
75044;SDS011;63614;56.026;35.960;2022-10-23T16:16:28;65.43;;;20.95;;
75044;SDS011;63614;56.026;35.960;2022-10-23T16:18:54;51.47;;;19.15;;
75044;SDS011;63614;56.026;35.960;2022-10-23T16:21:24;56.03;;;20.70;;
75044;SDS011;63614;56.026;35.960;2022-10-23T16:23:52;69.93;;;21.58;;
75044;SDS011;63614;56.026;35.960;2022-10-23T16:26:20;61.15;;;20.60;;
75044;SDS011;63614;56.026;35.960;2022-10-23T16:28:46;42.80;;;18.48;;
75044;SDS011;63614;56.026;35.960;2022-10-23T16:31:17;47.85;;;17.13;;
75044;SDS011;63614;56.026;35.960;2022-10-23T16:33:45;43.20;;;17.90;;
75044;SDS011;63614;56.026;35.960;2022-10-23T16:36:11;54.75;;;18.35;;
75044;SDS011;63614;56.026;35.960;2022-10-23T16:38:57;48.90;;;18.05;;
75044;SDS011;63614;56.026;35.960;2022-10-23T16:41:44;45.15;;;18.38;;
75044;SDS011;63614;56.026;35.960;2022-10-23T16:44:16;42.22;;;17.48;;
75044;SDS011;63614;56.026;35.960;2022-10-23T16:46:56;48.20;;;17.13;;
75044;SDS011;63614;56.026;35.960;2022-10-23T16:49:22;40.88;;;17.50;;
75044;SDS011;63614;56.026;35.960;2022-10-23T16:51:48;45.42;;;17.73;;
75044;SDS011;63614;56.026;35.960;2022-10-23T16:54:14;41.63;;;17.90;;
75044;SDS011;63614;56.026;35.960;2022-10-23T16:56:41;40.38;;;15.88;;
75044;SDS011;63614;56.026;35.960;2022-10-23T16:59:09;40.72;;;16.70;;
75044;SDS011;63614;56.026;35.960;2022-10-23T17:01:35;42.83;;;16.83;;
75044;SDS011;63614;56.026;35.960;2022-10-23T17:04:01;46.65;;;16.00;;
75044;SDS011;63614;56.026;35.960;2022-10-23T17:06:28;43.33;;;16.52;;